Time,TemperatureF,DewpointF,PressureIn,WindDirection,WindDirectionDegrees,WindSpeedMPH,WindSpeedGustMPH,Humidity,HourlyPrecipIn,Conditions,Clouds,dailyrainin,SoftwareType,DateUTC
2013-05-28 08:30:00,59.0,55.8,30.11,WNW,291,0.0,2.0,89,0.00,CLR,,0.00,WeatherDisplay:10.37,2013-05-28 12:30:00,
2013-05-28 08:45:00,59.6,56.4,30.12,WNW,292,0.0,1.0,89,0.00,CLR,,0.00,WeatherDisplay:10.37,2013-05-28 12:45:00,
2013-05-28 09:00:00,60.8,57.5,30.12,WNW,292,0.0,1.0,89,0.00,CLR,,0.00,WeatherDisplay:10.37,2013-05-28 13:00:00,
2013-05-28 09:15:00,62.7,58.8,30.12,NNW,335,1.0,3.0,87,0.00,CLR,,0.00,WeatherDisplay:10.37,2013-05-28 13:15:00,
2013-05-28 09:30:00,64.8,60.5,30.12,NE,56,2.0,4.0,86,0.00,CLR,,0.00,WeatherDisplay:10.37,2013-05-28 13:30:00,
2013-05-28 09:45:00,66.0,60.7,30.12,ENE,63,0.0,3.0,83,0.00,CLR,,0.00,WeatherDisplay:10.37,2013-05-28 13:45:00,
2013-05-28 11:15:00,72.2,61.5,30.11,ENE,68,2.0,4.0,69,0.00,CLR,,0.00,WeatherDisplay:10.37,2013-05-28 15:15:00,
2013-05-28 11:30:00,73.7,62.0,30.10,NE,51,5.0,6.0,67,0.00,CLR,,0.00,WeatherDisplay:10.37,2013-05-28 15:30:00,
2013-05-28 11:45:00,74.6,61.6,30.10,ENE,68,2.0,6.0,64,0.00,CLR,,0.00,WeatherDisplay:10.37,2013-05-28 15:45:00,
2013-05-28 12:00:00,75.6,61.6,30.10,NE,54,5.0,8.0,62,0.00,CLR,,0.00,WeatherDisplay:10.37,2013-05-28 16:00:00,
2013-05-28 13:15:00,78.3,59.2,30.08,NNW,335,5.0,12.0,52,0.00,CLR,,0.00,WeatherDisplay:10.37,2013-05-28 17:15:00,
2013-05-28 13:30:00,77.8,59.3,30.07,ENE,65,1.0,12.0,53,0.00,CLR,,0.00,WeatherDisplay:10.37,2013-05-28 17:30:00,
2013-05-28 13:45:00,77.1,58.6,30.07,North,357,6.0,13.0,53,0.00,CLR,,0.00,WeatherDisplay:10.37,2013-05-28 17:45:00,
2013-05-28 14:00:00,77.1,59.2,30.06,NE,41,3.0,9.0,54,0.00,CLR,,0.00,WeatherDisplay:10.37,2013-05-28 18:00:00,
2013-05-28 14:15:00,77.6,59.1,30.07,NNW,333,8.0,12.0,53,0.00,CLR,,0.00,WeatherDisplay:10.37,2013-05-28 18:15:00,
2013-05-28 14:30:00,79.4,59.2,30.06,North,10,3.0,13.0,50,0.00,CLR,,0.00,WeatherDisplay:10.37,2013-05-28 18:30:00,
2013-05-28 14:45:00,79.3,58.5,30.05,NE,40,3.0,15.0,49,0.00,FEW,,0.00,WeatherDisplay:10.37,2013-05-28 18:45:00,
2013-05-28 15:00:00,79.3,60.1,30.05,NNE,32,3.0,17.0,52,0.00,FEW,,0.00,WeatherDisplay:10.37,2013-05-28 19:00:00,
2013-05-28 18:30:00,77.1,59.2,30.04,NE,48,2.0,18.0,54,0.00,FEW,,0.00,WeatherDisplay:10.37,2013-05-28 22:30:00,
2013-05-28 18:45:00,76.7,58.3,30.04,WNW,289,2.0,10.0,53,0.00,CLR,,0.00,WeatherDisplay:10.37,2013-05-28 22:45:00,